createdAt,value
2023-05-14T00:00:07.721Z,99.90
2023-05-14T00:02:35.945Z,99.90
2023-05-14T00:05:04.144Z,99.90
2023-05-14T00:07:32.294Z,99.90
2023-05-14T00:10:00.694Z,99.90
2023-05-14T00:12:30.098Z,99.90
2023-05-14T00:14:59.653Z,99.90
2023-05-14T00:17:27.866Z,99.90
2023-05-14T00:19:55.988Z,99.90
2023-05-14T00:22:24.137Z,99.70
2023-05-14T00:24:52.261Z,99.90
2023-05-14T00:27:20.469Z,99.90
2023-05-14T00:29:48.587Z,99.90
2023-05-14T00:32:18.086Z,99.90
2023-05-14T00:34:46.251Z,99.90
2023-05-14T00:37:14.394Z,99.90
2023-05-14T00:39:42.527Z,99.90
2023-05-14T00:42:10.737Z,99.90
2023-05-14T00:44:38.849Z,99.90
2023-05-14T00:47:07.529Z,99.90
2023-05-14T00:49:39.464Z,99.90
2023-05-14T00:52:08.722Z,99.90
2023-05-14T00:54:37.499Z,99.90
2023-05-14T00:57:07.351Z,99.90
2023-05-14T00:59:35.958Z,99.90
2023-05-14T01:02:04.136Z,99.90
2023-05-14T01:04:32.270Z,99.90
2023-05-14T01:07:10.482Z,99.90
2023-05-14T01:09:44.288Z,99.90
2023-05-14T01:12:20.464Z,99.90
2023-05-14T01:14:56.105Z,99.90
2023-05-14T01:17:27.720Z,99.90
2023-05-14T01:19:57.814Z,99.90
2023-05-14T01:22:27.282Z,99.90
2023-05-14T01:24:55.876Z,99.90
2023-05-14T01:27:43.794Z,99.90
2023-05-14T01:30:31.032Z,99.90
2023-05-14T01:33:01.972Z,99.90
2023-05-14T01:35:31.587Z,99.90
2023-05-14T01:38:02.818Z,99.90
2023-05-14T01:40:33.068Z,99.90
2023-05-14T01:43:02.141Z,99.90
2023-05-14T01:45:31.580Z,99.90
2023-05-14T01:47:59.727Z,99.90
2023-05-14T01:50:27.881Z,99.90
2023-05-14T01:52:56.704Z,99.90
2023-05-14T01:55:26.946Z,99.90
2023-05-14T01:57:55.361Z,99.90
2023-05-14T02:00:25.970Z,99.90
2023-05-14T02:02:54.527Z,99.90
2023-05-14T02:05:22.703Z,99.90
2023-05-14T02:07:51.367Z,99.90
2023-05-14T02:10:19.605Z,99.90
2023-05-14T02:12:49.112Z,99.90
2023-05-14T02:15:17.338Z,99.90
2023-05-14T02:17:45.716Z,99.90
2023-05-14T02:20:14.588Z,99.90
2023-05-14T02:22:45.708Z,99.90
2023-05-14T02:25:14.088Z,99.90
2023-05-14T02:27:42.338Z,99.90
2023-05-14T02:30:13.129Z,99.90
2023-05-14T02:32:41.458Z,99.90
2023-05-14T02:35:10.621Z,99.90
2023-05-14T02:37:38.762Z,99.90
2023-05-14T02:40:08.231Z,99.90
2023-05-14T02:42:36.618Z,99.90
2023-05-14T02:45:05.091Z,99.90
2023-05-14T02:47:37.557Z,99.90
2023-05-14T02:50:07.354Z,99.90
2023-05-14T02:52:35.612Z,99.90
2023-05-14T02:55:03.997Z,99.90
2023-05-14T02:57:32.124Z,99.90
2023-05-14T03:00:00.278Z,99.90
2023-05-14T03:02:28.986Z,99.90
2023-05-14T03:04:58.962Z,99.90
2023-05-14T03:07:27.099Z,99.90
2023-05-14T03:09:55.276Z,99.90
2023-05-14T03:12:23.444Z,99.90
2023-05-14T03:14:51.576Z,99.90
2023-05-14T03:17:19.752Z,99.90
2023-05-14T03:19:47.929Z,99.90
2023-05-14T03:22:17.483Z,99.90
2023-05-14T03:24:45.592Z,99.90
2023-05-14T03:27:13.708Z,99.90
2023-05-14T03:29:41.863Z,99.90
2023-05-14T03:32:10.045Z,99.90
2023-05-14T03:34:38.281Z,99.90
2023-05-14T03:37:06.767Z,99.90
2023-05-14T03:39:36.486Z,99.90
2023-05-14T03:42:04.966Z,99.90
2023-05-14T03:44:33.138Z,99.90
2023-05-14T03:47:01.285Z,99.90
2023-05-14T03:49:29.428Z,99.90
2023-05-14T03:51:59.376Z,99.90
2023-05-14T03:54:27.671Z,99.90
2023-05-14T03:56:57.196Z,99.90
2023-05-14T03:59:25.682Z,99.90
2023-05-14T04:01:53.818Z,99.90
2023-05-14T04:04:21.979Z,99.90
2023-05-14T04:06:50.246Z,99.90
2023-05-14T04:09:18.353Z,99.90
2023-05-14T04:11:46.590Z,99.90
2023-05-14T04:14:16.242Z,99.90
2023-05-14T04:16:44.417Z,99.90
2023-05-14T04:19:12.682Z,99.90
2023-05-14T04:21:40.915Z,99.90
2023-05-14T04:24:09.473Z,99.90
2023-05-14T04:26:37.627Z,99.90
2023-05-14T04:29:05.811Z,99.90
2023-05-14T04:31:35.406Z,99.90
2023-05-14T04:34:03.583Z,99.90
2023-05-14T04:36:31.727Z,99.90
2023-05-14T04:38:59.863Z,99.90
2023-05-14T04:41:27.996Z,99.90
2023-05-14T04:43:57.745Z,99.90
2023-05-14T04:46:25.992Z,99.90
2023-05-14T04:48:56.459Z,99.90
2023-05-14T04:51:24.697Z,99.90
2023-05-14T04:53:52.939Z,99.90
2023-05-14T04:56:21.566Z,99.90
2023-05-14T04:58:49.838Z,99.90
2023-05-14T05:01:18.095Z,99.90
2023-05-14T05:03:46.317Z,99.90
2023-05-14T05:06:15.985Z,99.90
2023-05-14T05:08:44.088Z,99.90
2023-05-14T05:11:12.425Z,99.90
2023-05-14T05:13:40.535Z,99.90
2023-05-14T05:16:08.915Z,99.90
2023-05-14T05:18:37.106Z,99.90
2023-05-14T05:21:05.298Z,99.90
2023-05-14T05:23:34.829Z,99.90
2023-05-14T05:26:03.039Z,99.90
2023-05-14T05:28:31.166Z,99.90
2023-05-14T05:30:59.362Z,99.90
2023-05-14T05:33:27.654Z,99.90
2023-05-14T05:35:55.854Z,99.90
2023-05-14T05:38:24.025Z,99.90
2023-05-14T05:40:53.849Z,99.90
2023-05-14T05:43:22.076Z,99.90
2023-05-14T05:45:50.236Z,99.90
2023-05-14T05:48:18.454Z,99.90
2023-05-14T05:50:50.197Z,99.90
2023-05-14T05:53:18.510Z,99.90
2023-05-14T05:55:46.702Z,99.90
2023-05-14T05:58:17.309Z,99.90
2023-05-14T06:00:45.654Z,99.60
2023-05-14T06:03:14.676Z,99.60
2023-05-14T06:05:43.038Z,99.60
2023-05-14T06:08:11.276Z,99.90
2023-05-14T06:10:39.712Z,99.00
2023-05-14T06:13:07.973Z,99.60
2023-05-14T06:15:37.879Z,99.00
2023-05-14T06:18:06.233Z,98.40
2023-05-14T06:20:35.271Z,98.20
2023-05-14T06:23:03.400Z,97.80
2023-05-14T06:25:31.543Z,98.30
2023-05-14T06:27:59.748Z,99.20
2023-05-14T06:30:27.929Z,99.90
2023-05-14T06:32:57.540Z,99.60
2023-05-14T06:35:26.306Z,99.80
2023-05-14T06:37:55.052Z,99.20
2023-05-14T06:40:23.556Z,99.30
2023-05-14T06:42:51.914Z,98.70
2023-05-14T06:45:20.060Z,98.00
2023-05-14T06:47:48.231Z,97.40
2023-05-14T06:50:17.925Z,97.70
2023-05-14T06:52:46.606Z,97.40
2023-05-14T06:55:14.768Z,97.10
2023-05-14T06:57:42.942Z,97.60
2023-05-14T07:00:12.276Z,97.20
2023-05-14T07:02:40.449Z,98.00
2023-05-14T07:05:09.726Z,97.10
2023-05-14T07:07:39.290Z,97.30
2023-05-14T07:10:09.236Z,95.50
2023-05-14T07:12:37.607Z,94.00
2023-05-14T07:15:06.750Z,93.50
2023-05-14T07:17:34.975Z,93.70
2023-05-14T07:20:03.303Z,92.60
2023-05-14T07:22:31.838Z,93.20
2023-05-14T07:25:02.776Z,93.60
2023-05-14T07:27:30.963Z,93.00
2023-05-14T07:29:59.085Z,92.40
2023-05-14T07:32:27.279Z,91.80
2023-05-14T07:34:57.758Z,92.30
2023-05-14T07:37:28.767Z,92.40
2023-05-14T07:39:57.255Z,91.20
2023-05-14T07:42:35.990Z,90.10
2023-05-14T07:45:06.136Z,89.80
2023-05-14T07:47:34.441Z,88.70
2023-05-14T07:50:03.511Z,88.70
2023-05-14T07:52:31.654Z,86.60
2023-05-14T07:54:59.995Z,87.40
2023-05-14T07:57:29.723Z,83.70
2023-05-14T07:59:58.203Z,84.60
2023-05-14T08:02:26.478Z,85.10
2023-05-14T08:04:55.445Z,80.80
2023-05-14T08:07:24.285Z,78.40
2023-05-14T08:09:52.471Z,75.10
2023-05-14T08:12:20.695Z,69.70
2023-05-14T08:14:50.409Z,69.10
2023-05-14T08:17:18.714Z,69.50
2023-05-14T08:19:47.183Z,68.00
2023-05-14T08:22:15.395Z,68.30
2023-05-14T08:24:43.970Z,67.00
2023-05-14T08:27:12.164Z,66.50
2023-05-14T08:29:40.434Z,65.40
2023-05-14T08:32:21.982Z,64.60
2023-05-14T08:34:51.772Z,63.20
2023-05-14T08:37:20.188Z,63.20
2023-05-14T08:39:48.393Z,62.80
2023-05-14T08:42:21.831Z,62.60
2023-05-14T08:44:53.067Z,60.60
2023-05-14T08:47:23.448Z,62.40
2023-05-14T08:49:57.028Z,62.60
2023-05-14T08:52:25.156Z,61.40
2023-05-14T08:54:54.823Z,59.20
2023-05-14T08:57:26.708Z,59.00
2023-05-14T08:59:55.018Z,58.30
2023-05-14T09:02:29.091Z,58.20
2023-05-14T09:05:00.187Z,57.40
2023-05-14T09:07:29.168Z,56.90
2023-05-14T09:09:57.654Z,56.00
2023-05-14T09:12:26.326Z,56.60
2023-05-14T09:14:54.525Z,55.30
2023-05-14T09:17:26.495Z,53.50
2023-05-14T09:19:54.700Z,52.60
2023-05-14T09:22:23.040Z,54.70
2023-05-14T09:25:05.031Z,53.40
2023-05-14T09:27:34.464Z,51.60
2023-05-14T09:30:11.899Z,52.00
2023-05-14T09:32:44.036Z,52.30
2023-05-14T09:35:18.108Z,51.10
2023-05-14T09:37:48.430Z,49.20
2023-05-14T09:40:18.358Z,49.40
2023-05-14T09:42:48.162Z,50.00
2023-05-14T09:45:16.989Z,49.30
2023-05-14T09:47:46.700Z,49.50
2023-05-14T09:50:15.033Z,47.80
2023-05-14T09:52:43.329Z,47.70
2023-05-14T09:55:11.649Z,49.00
2023-05-14T09:57:39.832Z,49.80
2023-05-14T10:00:10.291Z,50.10
2023-05-14T10:02:41.161Z,48.00
2023-05-14T10:05:13.629Z,47.80
2023-05-14T10:07:47.811Z,47.40
2023-05-14T10:10:19.980Z,47.60
2023-05-14T10:12:53.472Z,46.40
2023-05-14T10:15:28.317Z,47.70
2023-05-14T10:18:00.069Z,47.90
2023-05-14T10:20:30.580Z,46.70
2023-05-14T10:22:59.706Z,46.40
2023-05-14T10:25:28.531Z,45.70
2023-05-14T10:27:57.054Z,44.50
2023-05-14T10:30:25.618Z,44.90
2023-05-14T10:33:08.821Z,44.70
2023-05-14T10:36:05.172Z,45.20
2023-05-14T10:38:35.419Z,43.40
2023-05-14T10:41:05.274Z,45.20
2023-05-14T10:43:38.720Z,44.80
2023-05-14T10:46:08.190Z,43.70
2023-05-14T10:48:37.768Z,43.80
2023-05-14T10:51:09.770Z,43.80
2023-05-14T10:53:39.513Z,44.40
2023-05-14T10:56:09.179Z,43.90
2023-05-14T10:58:39.035Z,43.10
2023-05-14T11:01:08.835Z,43.50
2023-05-14T11:03:42.242Z,43.60
2023-05-14T11:06:13.510Z,41.90
2023-05-14T11:08:41.790Z,42.50
2023-05-14T11:11:11.137Z,42.90
2023-05-14T11:13:39.783Z,43.00
2023-05-14T11:16:21.905Z,43.70
2023-05-14T11:19:01.624Z,44.70
2023-05-14T11:21:32.542Z,44.10
2023-05-14T11:24:01.625Z,43.50
2023-05-14T11:26:29.869Z,43.20
2023-05-14T11:28:58.075Z,43.40
2023-05-14T11:31:26.915Z,42.00
2023-05-14T11:33:55.047Z,41.60
2023-05-14T11:36:23.596Z,43.20
2023-05-14T11:38:53.159Z,42.40
2023-05-14T11:41:23.225Z,42.50
2023-05-14T11:43:51.677Z,42.60
2023-05-14T11:46:20.011Z,41.30
2023-05-14T11:48:49.588Z,41.60
2023-05-14T11:51:17.764Z,41.00
2023-05-14T11:53:47.133Z,40.70
2023-05-14T11:56:16.705Z,39.60
2023-05-14T11:58:49.609Z,40.50
2023-05-14T12:01:17.865Z,40.00
2023-05-14T12:03:46.226Z,39.80
2023-05-14T12:06:14.552Z,40.20
2023-05-14T12:08:42.774Z,40.40
2023-05-14T12:11:11.025Z,40.40
2023-05-14T12:13:41.191Z,39.90
2023-05-14T12:16:09.452Z,41.40
2023-05-14T12:18:38.182Z,39.90
2023-05-14T12:21:08.438Z,39.80
2023-05-14T12:23:36.758Z,38.20
2023-05-14T12:26:06.930Z,39.80
2023-05-14T12:28:38.071Z,39.50
2023-05-14T12:31:08.221Z,39.30
2023-05-14T12:33:36.444Z,37.00
2023-05-14T12:36:20.422Z,38.60
2023-05-14T12:38:50.470Z,37.60
2023-05-14T12:41:18.980Z,38.90
2023-05-14T12:43:49.800Z,39.30
2023-05-14T12:46:19.612Z,37.50
2023-05-14T12:48:47.955Z,36.10
2023-05-14T12:51:16.276Z,37.40
2023-05-14T12:53:44.477Z,37.60
2023-05-14T12:56:12.868Z,36.90
2023-05-14T12:58:41.120Z,36.50
2023-05-14T13:01:09.410Z,37.10
2023-05-14T13:03:39.022Z,37.70
2023-05-14T13:06:07.464Z,37.70
2023-05-14T13:08:36.301Z,37.70
2023-05-14T13:11:04.597Z,37.60
2023-05-14T13:13:32.746Z,38.00
2023-05-14T13:16:01.056Z,38.40
2023-05-14T13:18:29.266Z,37.90
2023-05-14T13:20:58.815Z,38.90
2023-05-14T13:23:26.971Z,38.90
2023-05-14T13:25:55.092Z,38.30
2023-05-14T13:28:23.262Z,38.50
2023-05-14T13:31:06.919Z,37.90
2023-05-14T13:33:37.065Z,37.20
2023-05-14T13:36:07.107Z,37.30
2023-05-14T13:38:35.624Z,38.00
2023-05-14T13:41:03.837Z,38.30
2023-05-14T13:43:32.976Z,39.10
2023-05-14T13:46:01.576Z,39.20
2023-05-14T13:48:30.971Z,37.90
2023-05-14T13:50:59.306Z,38.80
2023-05-14T13:53:28.892Z,38.10
2023-05-14T13:55:58.444Z,37.70
2023-05-14T13:58:27.009Z,39.10
2023-05-14T14:00:56.570Z,38.20
2023-05-14T14:03:24.830Z,38.00
2023-05-14T14:05:53.198Z,37.50
2023-05-14T14:08:24.264Z,36.60
2023-05-14T14:10:55.490Z,36.80
2023-05-14T14:13:24.523Z,35.40
2023-05-14T14:15:52.947Z,35.60
2023-05-14T14:18:21.170Z,36.70
2023-05-14T14:20:49.435Z,35.50
2023-05-14T14:23:17.599Z,36.50
2023-05-14T14:25:45.780Z,36.50
2023-05-14T14:28:15.502Z,36.30
2023-05-14T14:30:43.887Z,36.70
2023-05-14T14:33:12.495Z,37.40
2023-05-14T14:35:40.865Z,35.50
2023-05-14T14:38:08.982Z,35.20
2023-05-14T14:40:37.232Z,35.50
2023-05-14T14:43:05.392Z,33.20
2023-05-14T14:45:34.919Z,33.20
2023-05-14T14:48:30.890Z,32.80
2023-05-14T14:50:59.372Z,33.10
2023-05-14T14:53:27.587Z,33.50
2023-05-14T14:55:55.767Z,31.90
2023-05-14T14:58:24.529Z,32.60
2023-05-14T15:00:55.404Z,32.40
2023-05-14T15:03:23.959Z,32.50
2023-05-14T15:05:53.517Z,31.90
2023-05-14T15:08:23.880Z,32.40
2023-05-14T15:10:52.146Z,32.00
2023-05-14T15:13:20.622Z,31.80
2023-05-14T15:15:49.197Z,32.50
2023-05-14T15:18:18.810Z,31.50
2023-05-14T15:20:47.083Z,31.30
2023-05-14T15:23:15.277Z,31.10
2023-05-14T15:25:43.927Z,31.60
2023-05-14T15:28:12.160Z,31.60
2023-05-14T15:30:40.297Z,31.90
2023-05-14T15:33:09.117Z,31.40
2023-05-14T15:35:39.185Z,31.70
2023-05-14T15:38:08.357Z,31.30
2023-05-14T15:40:36.533Z,31.50
2023-05-14T15:43:05.200Z,31.60
2023-05-14T15:45:34.238Z,32.40
2023-05-14T15:48:02.588Z,32.50
2023-05-14T15:50:30.869Z,32.50
2023-05-14T15:53:01.650Z,32.20
2023-05-14T15:55:29.790Z,32.80
2023-05-14T15:57:58.037Z,32.90
2023-05-14T16:00:27.068Z,33.10
2023-05-14T16:02:55.585Z,33.40
2023-05-14T16:05:23.795Z,33.60
2023-05-14T16:07:51.957Z,34.00
2023-05-14T16:10:22.565Z,34.90
2023-05-14T16:12:50.912Z,34.20
2023-05-14T16:15:19.284Z,35.00
2023-05-14T16:17:47.561Z,34.90
2023-05-14T16:20:16.675Z,35.80
2023-05-14T16:22:45.101Z,34.90
2023-05-14T16:25:13.373Z,34.80
2023-05-14T16:27:43.119Z,34.80
2023-05-14T16:30:11.972Z,34.80
2023-05-14T16:32:42.012Z,35.50
2023-05-14T16:35:10.883Z,35.20
2023-05-14T16:37:39.053Z,34.80
2023-05-14T16:40:11.181Z,36.10
2023-05-14T16:42:39.646Z,35.60
2023-05-14T16:45:10.553Z,36.10
2023-05-14T16:47:38.766Z,36.20
2023-05-14T16:50:08.164Z,36.40
2023-05-14T16:52:36.468Z,36.60
2023-05-14T16:55:04.924Z,36.40
2023-05-14T16:57:33.127Z,36.00
2023-05-14T17:00:01.386Z,35.90
2023-05-14T17:02:31.160Z,36.20
2023-05-14T17:04:59.664Z,36.20
2023-05-14T17:07:27.915Z,36.00
2023-05-14T17:09:56.014Z,35.90
2023-05-14T17:12:24.148Z,36.20
2023-05-14T17:14:52.336Z,36.40
2023-05-14T17:17:20.514Z,36.70
2023-05-14T17:19:50.045Z,37.10
2023-05-14T17:22:18.803Z,37.60
2023-05-14T17:24:46.936Z,38.40
2023-05-14T17:27:16.685Z,38.50
2023-05-14T17:29:45.063Z,38.30
2023-05-14T17:32:13.221Z,38.40
2023-05-14T17:34:41.348Z,38.40
2023-05-14T17:37:11.054Z,38.30
2023-05-14T17:39:39.210Z,38.60
2023-05-14T17:42:09.060Z,38.90
2023-05-14T17:44:37.404Z,39.10
2023-05-14T17:47:07.165Z,39.30
2023-05-14T17:49:35.577Z,39.50
2023-05-14T17:52:04.404Z,40.00
2023-05-14T17:54:35.250Z,40.60
2023-05-14T17:57:04.139Z,41.50
2023-05-14T17:59:32.279Z,42.10
2023-05-14T18:02:00.460Z,41.90
2023-05-14T18:04:28.711Z,42.40
2023-05-14T18:06:57.047Z,42.30
2023-05-14T18:09:25.213Z,43.00
2023-05-14T18:11:56.819Z,42.70
2023-05-14T18:14:25.342Z,43.00
2023-05-14T18:16:53.562Z,43.30
2023-05-14T18:19:22.004Z,43.70
2023-05-14T18:21:50.766Z,44.50
2023-05-14T18:24:18.891Z,45.00
2023-05-14T18:26:47.057Z,44.20
2023-05-14T18:29:16.879Z,45.30
2023-05-14T18:31:45.031Z,45.50
2023-05-14T18:34:13.135Z,46.30
2023-05-14T18:36:41.300Z,47.70
2023-05-14T18:39:09.671Z,47.70
2023-05-14T18:41:37.834Z,47.50
2023-05-14T18:44:05.976Z,48.00
2023-05-14T18:46:35.660Z,49.10
2023-05-14T18:49:03.875Z,48.20
2023-05-14T18:51:32.111Z,48.90
2023-05-14T18:54:00.457Z,50.00
2023-05-14T18:56:28.748Z,48.90
2023-05-14T18:58:56.977Z,47.60
2023-05-14T19:01:25.675Z,47.30
2023-05-14T19:03:56.200Z,49.00
2023-05-14T19:06:24.641Z,49.80
2023-05-14T19:08:52.808Z,49.60
2023-05-14T19:11:21.976Z,49.70
2023-05-14T19:13:50.239Z,49.20
2023-05-14T19:16:18.559Z,49.70
2023-05-14T19:18:46.740Z,50.00
2023-05-14T19:21:16.580Z,50.00
2023-05-14T19:23:45.256Z,50.60
2023-05-14T19:26:13.435Z,50.50
2023-05-14T19:28:41.685Z,50.70
2023-05-14T19:31:09.856Z,51.50
2023-05-14T19:33:38.031Z,51.20
2023-05-14T19:36:06.759Z,51.20
2023-05-14T19:38:36.301Z,51.80
2023-05-14T19:41:04.427Z,51.50
2023-05-14T19:43:32.583Z,51.60
2023-05-14T19:46:01.480Z,51.10
2023-05-14T19:48:29.845Z,52.60
2023-05-14T19:50:58.065Z,54.10
2023-05-14T19:53:29.732Z,53.00
2023-05-14T19:56:00.038Z,52.90
2023-05-14T19:58:28.241Z,53.80
2023-05-14T20:00:56.787Z,53.80
2023-05-14T20:03:26.754Z,54.70
2023-05-14T20:05:55.831Z,54.40
2023-05-14T20:08:24.955Z,55.00
2023-05-14T20:10:53.172Z,55.50
2023-05-14T20:13:25.064Z,56.10
2023-05-14T20:15:55.188Z,56.00
2023-05-14T20:18:23.534Z,56.60
2023-05-14T20:20:51.837Z,56.10
2023-05-14T20:23:20.676Z,57.10
2023-05-14T20:25:48.937Z,57.60
2023-05-14T20:28:17.047Z,58.80
2023-05-14T20:30:46.644Z,58.80
2023-05-14T20:33:15.116Z,59.20
2023-05-14T20:35:44.062Z,59.50
2023-05-14T20:38:12.718Z,59.30
2023-05-14T20:40:41.389Z,59.50
2023-05-14T20:43:09.550Z,59.70
2023-05-14T20:45:37.816Z,59.40
2023-05-14T20:48:10.158Z,61.50
2023-05-14T20:50:38.451Z,62.00
2023-05-14T20:53:06.600Z,61.30
2023-05-14T20:55:34.963Z,62.50
2023-05-14T20:58:03.182Z,63.00
2023-05-14T21:00:31.371Z,64.00
2023-05-14T21:03:00.340Z,65.40
2023-05-14T21:05:30.163Z,65.90
2023-05-14T21:07:58.305Z,64.70
2023-05-14T21:10:26.678Z,65.40
2023-05-14T21:12:54.971Z,66.70
2023-05-14T21:15:23.414Z,66.90
2023-05-14T21:17:51.817Z,67.00
2023-05-14T21:20:20.039Z,68.50
2023-05-14T21:22:49.591Z,68.20
2023-05-14T21:25:17.849Z,68.10
2023-05-14T21:27:46.282Z,68.60
2023-05-14T21:30:15.375Z,68.50
2023-05-14T21:32:43.540Z,69.10
2023-05-14T21:35:11.688Z,70.30
2023-05-14T21:37:40.529Z,69.80
2023-05-14T21:40:12.353Z,70.90
2023-05-14T21:42:40.787Z,72.10
2023-05-14T21:45:09.667Z,71.90
2023-05-14T21:47:38.666Z,71.50
2023-05-14T21:50:07.828Z,72.30
2023-05-14T21:52:36.042Z,73.10
2023-05-14T21:55:04.270Z,71.70
2023-05-14T21:57:34.579Z,72.80
2023-05-14T22:00:03.347Z,72.60
2023-05-14T22:02:32.073Z,73.50
2023-05-14T22:05:00.274Z,74.10
2023-05-14T22:07:28.532Z,74.70
2023-05-14T22:09:56.689Z,73.40
2023-05-14T22:12:24.830Z,73.70
2023-05-14T22:14:54.433Z,73.30
2023-05-14T22:17:23.268Z,73.80
2023-05-14T22:19:51.512Z,74.50
2023-05-14T22:22:19.643Z,74.60
2023-05-14T22:24:47.780Z,74.80
2023-05-14T22:27:15.945Z,74.20
2023-05-14T22:29:44.130Z,75.50
2023-05-14T22:32:13.689Z,75.40
2023-05-14T22:34:41.824Z,74.00
2023-05-14T22:37:10.130Z,74.60
2023-05-14T22:39:38.312Z,73.70
2023-05-14T22:42:06.983Z,74.20
2023-05-14T22:44:35.502Z,73.80
2023-05-14T22:47:04.952Z,73.20
2023-05-14T22:49:34.519Z,73.40
2023-05-14T22:52:03.204Z,73.70
2023-05-14T22:54:31.376Z,74.10
2023-05-14T22:56:59.622Z,73.30
2023-05-14T22:59:27.825Z,74.20
2023-05-14T23:01:55.996Z,74.50
2023-05-14T23:04:24.224Z,74.50
2023-05-14T23:06:53.802Z,73.60
2023-05-14T23:09:21.937Z,74.20
2023-05-14T23:11:50.119Z,73.40
2023-05-14T23:14:18.774Z,73.20
2023-05-14T23:16:46.964Z,72.40
2023-05-14T23:19:15.235Z,72.30
2023-05-14T23:21:43.581Z,72.70
2023-05-14T23:24:13.088Z,72.00
2023-05-14T23:26:41.279Z,71.70
2023-05-14T23:29:09.408Z,71.30
2023-05-14T23:31:38.719Z,70.30
2023-05-14T23:34:06.874Z,71.30
2023-05-14T23:36:36.669Z,69.80
2023-05-14T23:39:05.455Z,69.80
2023-05-14T23:41:34.996Z,69.80
2023-05-14T23:44:03.247Z,70.90
2023-05-14T23:46:31.768Z,69.20
2023-05-14T23:49:00.332Z,70.20
2023-05-14T23:51:28.661Z,68.90
2023-05-14T23:53:58.618Z,69.70
2023-05-14T23:56:29.100Z,70.20
2023-05-14T23:58:58.806Z,70.90
